createdAt,value
2018-02-22T00:00:19.746Z,0
2018-02-22T00:01:00.299Z,0
2018-02-22T00:01:40.851Z,0
2018-02-22T00:02:21.412Z,0
2018-02-22T00:03:02.027Z,0
2018-02-22T00:03:42.578Z,0
2018-02-22T00:04:23.125Z,0
2018-02-22T00:05:03.679Z,0
2018-02-22T00:05:44.237Z,0
2018-02-22T00:06:24.781Z,0
2018-02-22T00:07:05.337Z,0
2018-02-22T00:07:45.904Z,0
2018-02-22T00:08:26.443Z,0
2018-02-22T00:09:07.032Z,0
2018-02-22T00:09:47.597Z,0
2018-02-22T00:10:28.139Z,0
2018-02-22T00:11:08.731Z,0
2018-02-22T00:11:49.279Z,0
2018-02-22T00:12:29.789Z,0
2018-02-22T00:13:10.339Z,0
2018-02-22T00:13:50.913Z,0
2018-02-22T00:14:31.460Z,0
2018-02-22T00:15:12.146Z,0
2018-02-22T00:15:52.670Z,0
2018-02-22T00:16:33.306Z,0
2018-02-22T00:17:13.789Z,0
2018-02-22T00:17:54.349Z,0
2018-02-22T00:18:34.902Z,0
2018-02-22T00:19:15.477Z,0
2018-02-22T00:19:56.016Z,0
2018-02-22T00:20:36.591Z,0
2018-02-22T00:21:17.148Z,0
2018-02-22T00:21:57.710Z,0
2018-02-22T00:22:38.260Z,0
2018-02-22T00:23:18.821Z,0
2018-02-22T00:23:59.377Z,0
2018-02-22T00:24:39.930Z,0
2018-02-22T00:25:20.502Z,0
2018-02-22T00:26:01.064Z,0
2018-02-22T00:26:41.626Z,0
2018-02-22T00:27:22.184Z,0
2018-02-22T00:28:02.733Z,0
2018-02-22T00:28:43.295Z,0
2018-02-22T00:29:23.863Z,0
2018-02-22T00:30:04.442Z,0
2018-02-22T00:30:45.010Z,0
2018-02-22T00:31:25.564Z,0
2018-02-22T00:32:06.116Z,0
2018-02-22T00:32:46.706Z,0
2018-02-22T00:33:27.248Z,0
2018-02-22T00:34:07.800Z,0
2018-02-22T00:34:48.353Z,0
2018-02-22T00:35:28.903Z,0
2018-02-22T00:36:09.459Z,0
2018-02-22T00:36:50.002Z,0
2018-02-22T00:37:30.549Z,0
2018-02-22T00:38:11.102Z,0
2018-02-22T00:38:51.659Z,0
2018-02-22T00:39:32.232Z,0
2018-02-22T00:40:12.799Z,0
2018-02-22T00:40:53.401Z,0
2018-02-22T00:41:33.928Z,0
2018-02-22T00:42:14.503Z,0
2018-02-22T00:42:55.062Z,0
2018-02-22T00:43:35.618Z,0
2018-02-22T00:44:16.181Z,0
2018-02-22T00:44:56.733Z,0
2018-02-22T00:45:37.287Z,0
2018-02-22T00:46:17.898Z,0
2018-02-22T00:46:58.459Z,0
2018-02-22T00:47:39.028Z,0
2018-02-22T00:48:19.610Z,0
2018-02-22T00:49:00.177Z,0
2018-02-22T00:49:40.730Z,0
2018-02-22T00:50:21.281Z,0
2018-02-22T00:51:01.837Z,0
2018-02-22T00:51:42.383Z,0
2018-02-22T00:52:22.936Z,0
2018-02-22T00:53:03.561Z,0
2018-02-22T00:53:44.116Z,0
2018-02-22T00:54:24.661Z,0
2018-02-22T00:55:05.220Z,0
2018-02-22T00:55:45.782Z,0
2018-02-22T00:56:26.345Z,0
2018-02-22T00:57:06.901Z,0
2018-02-22T00:57:47.459Z,0
2018-02-22T00:58:27.998Z,0
2018-02-22T00:59:08.551Z,0
2018-02-22T00:59:49.118Z,0
2018-02-22T01:00:29.645Z,0
2018-02-22T01:01:10.236Z,0
2018-02-22T01:01:50.778Z,0
2018-02-22T01:02:31.329Z,0
2018-02-22T01:03:11.886Z,0
2018-02-22T01:03:52.474Z,0
2018-02-22T01:04:33.206Z,0
2018-02-22T01:05:13.772Z,0
2018-02-22T01:05:54.322Z,0
2018-02-22T01:06:34.994Z,0
2018-02-22T01:07:15.597Z,0
2018-02-22T01:07:56.145Z,0
2018-02-22T01:08:36.706Z,0
2018-02-22T01:09:17.270Z,0
2018-02-22T01:09:57.818Z,0
2018-02-22T01:10:38.418Z,0
2018-02-22T01:11:18.996Z,0
2018-02-22T01:11:59.531Z,0
2018-02-22T01:12:40.085Z,0
2018-02-22T01:13:20.632Z,0
2018-02-22T01:14:01.195Z,0
2018-02-22T01:14:41.737Z,0
2018-02-22T01:15:22.298Z,0
2018-02-22T01:16:02.836Z,0
2018-02-22T01:16:43.432Z,0
2018-02-22T01:17:23.974Z,0
2018-02-22T01:18:04.585Z,0
2018-02-22T01:18:45.270Z,0
2018-02-22T01:19:25.813Z,0
2018-02-22T01:20:06.365Z,0
2018-02-22T01:20:46.927Z,0
2018-02-22T01:21:27.482Z,0
2018-02-22T01:22:08.101Z,0
2018-02-22T01:22:48.685Z,0
2018-02-22T01:23:29.235Z,0
2018-02-22T01:24:09.789Z,0
2018-02-22T01:24:50.606Z,0
2018-02-22T01:25:31.776Z,0
2018-02-22T01:26:12.346Z,0
2018-02-22T01:26:52.876Z,0
2018-02-22T01:27:33.438Z,0
2018-02-22T01:28:14.019Z,0
2018-02-22T01:28:54.564Z,0
2018-02-22T01:29:35.116Z,0
2018-02-22T01:30:15.672Z,0
2018-02-22T01:30:56.280Z,0
2018-02-22T01:31:36.843Z,0
2018-02-22T01:32:17.393Z,0
2018-02-22T01:32:58.028Z,0
2018-02-22T01:33:38.585Z,0
2018-02-22T01:34:19.137Z,0
2018-02-22T01:34:59.811Z,0
2018-02-22T01:35:40.417Z,0
2018-02-22T01:36:20.978Z,0
2018-02-22T01:37:01.620Z,0
2018-02-22T01:37:42.178Z,0
2018-02-22T01:38:22.971Z,0
2018-02-22T01:39:03.892Z,0
2018-02-22T01:39:44.435Z,0
2018-02-22T01:40:24.974Z,0
2018-02-22T01:41:05.521Z,0
2018-02-22T01:41:46.089Z,0
2018-02-22T01:42:26.651Z,0
2018-02-22T01:43:07.227Z,0
2018-02-22T01:43:47.787Z,0
2018-02-22T01:44:28.347Z,0
2018-02-22T01:45:08.956Z,0
2018-02-22T01:45:49.575Z,0
2018-02-22T01:46:30.115Z,0
2018-02-22T01:47:10.672Z,0
2018-02-22T01:47:51.207Z,0
2018-02-22T01:48:31.845Z,0
2018-02-22T01:49:12.334Z,0
2018-02-22T01:49:52.874Z,0
2018-02-22T01:50:33.433Z,0
2018-02-22T01:51:14.015Z,0
2018-02-22T01:51:54.600Z,0
2018-02-22T01:52:35.155Z,0
2018-02-22T01:53:15.740Z,0
2018-02-22T01:53:56.393Z,0
2018-02-22T01:54:36.883Z,0
2018-02-22T01:55:17.438Z,0
2018-02-22T01:55:57.995Z,0
2018-02-22T01:56:38.554Z,0
2018-02-22T01:57:19.123Z,0
2018-02-22T01:57:59.681Z,0
2018-02-22T01:58:40.241Z,0
2018-02-22T01:59:20.804Z,0
2018-02-22T02:00:01.364Z,0
2018-02-22T02:00:41.925Z,0
2018-02-22T02:01:22.467Z,0
2018-02-22T02:02:03.025Z,0
2018-02-22T02:02:43.741Z,0
2018-02-22T02:03:24.257Z,0
2018-02-22T02:04:04.734Z,0
2018-02-22T02:04:45.270Z,0
2018-02-22T02:05:25.812Z,0
2018-02-22T02:06:06.371Z,0
2018-02-22T02:06:46.950Z,0
2018-02-22T02:07:27.489Z,0
2018-02-22T02:08:08.036Z,0
2018-02-22T02:08:48.610Z,0
2018-02-22T02:09:29.249Z,0
2018-02-22T02:10:09.791Z,0
2018-02-22T02:10:50.343Z,0
2018-02-22T02:11:31.019Z,0
2018-02-22T02:12:11.564Z,0
2018-02-22T02:12:52.106Z,0
2018-02-22T02:13:32.660Z,0
2018-02-22T02:14:13.217Z,0
2018-02-22T02:14:53.767Z,0
2018-02-22T02:15:34.322Z,0
2018-02-22T02:16:14.984Z,0
2018-02-22T02:16:55.494Z,0
2018-02-22T02:17:36.084Z,0
2018-02-22T02:18:16.658Z,0
2018-02-22T02:18:57.204Z,0
2018-02-22T02:19:37.768Z,0
2018-02-22T02:20:18.324Z,0
2018-02-22T02:20:58.897Z,0
2018-02-22T02:21:39.478Z,0
2018-02-22T02:22:20.023Z,0
2018-02-22T02:23:00.591Z,0
2018-02-22T02:23:41.252Z,0
2018-02-22T02:24:21.903Z,0
2018-02-22T02:25:02.443Z,0
2018-02-22T02:25:42.992Z,0
2018-02-22T02:26:23.532Z,0
2018-02-22T02:27:04.088Z,0
2018-02-22T02:27:44.770Z,0
2018-02-22T02:28:25.402Z,0
2018-02-22T02:29:05.950Z,0
2018-02-22T02:29:46.514Z,0
2018-02-22T02:30:27.098Z,0
2018-02-22T02:31:07.650Z,0
2018-02-22T02:31:48.198Z,0
2018-02-22T02:32:28.747Z,0
2018-02-22T02:33:09.356Z,0
2018-02-22T02:33:49.925Z,0
2018-02-22T02:34:30.469Z,0
2018-02-22T02:35:11.027Z,0
2018-02-22T02:35:51.578Z,0
2018-02-22T02:36:32.139Z,0
2018-02-22T02:37:12.686Z,0
2018-02-22T02:37:53.255Z,0
2018-02-22T02:38:33.797Z,0
2018-02-22T02:39:14.365Z,0
2018-02-22T02:39:54.904Z,0
2018-02-22T02:40:35.464Z,0
2018-02-22T02:41:16.032Z,0
2018-02-22T02:41:56.593Z,0
2018-02-22T02:42:37.161Z,0
2018-02-22T02:43:17.707Z,0
2018-02-22T02:43:58.269Z,0
2018-02-22T02:44:38.824Z,0
2018-02-22T02:45:19.399Z,0
2018-02-22T02:45:59.945Z,0
2018-02-22T02:46:40.507Z,0
2018-02-22T02:47:21.098Z,0
2018-02-22T02:48:01.633Z,0
2018-02-22T02:48:42.204Z,0
2018-02-22T02:49:22.762Z,0
2018-02-22T02:50:03.347Z,0
2018-02-22T02:50:43.895Z,0
2018-02-22T02:51:24.470Z,0
2018-02-22T02:52:05.028Z,0
2018-02-22T02:52:45.587Z,0
2018-02-22T02:53:26.175Z,0
2018-02-22T02:54:06.702Z,0
2018-02-22T02:54:47.252Z,0
2018-02-22T02:55:27.823Z,0
2018-02-22T02:56:08.351Z,0
2018-02-22T02:56:48.906Z,0
2018-02-22T02:57:29.457Z,0
2018-02-22T02:58:10.008Z,0
2018-02-22T02:58:50.555Z,0
2018-02-22T02:59:31.120Z,0
2018-02-22T03:00:11.681Z,0
2018-02-22T03:00:52.279Z,0
2018-02-22T03:01:32.821Z,0
2018-02-22T03:02:13.409Z,0
2018-02-22T03:02:53.958Z,0
2018-02-22T03:03:34.515Z,0
2018-02-22T03:04:15.070Z,0
2018-02-22T03:04:55.651Z,0
2018-02-22T03:05:36.211Z,0
2018-02-22T03:06:16.842Z,0
2018-02-22T03:06:57.353Z,0
2018-02-22T03:07:37.900Z,0
2018-02-22T03:08:18.472Z,0
2018-02-22T03:08:59.002Z,0
2018-02-22T03:09:39.782Z,0
2018-02-22T03:10:20.374Z,0
2018-02-22T03:11:00.922Z,0
2018-02-22T03:11:41.481Z,0
2018-02-22T03:12:22.039Z,0
2018-02-22T03:13:02.577Z,0
2018-02-22T03:13:43.130Z,0
2018-02-22T03:14:23.699Z,0
2018-02-22T03:15:04.237Z,0
2018-02-22T03:15:44.803Z,0
2018-02-22T03:16:25.368Z,0
2018-02-22T03:17:05.925Z,0
2018-02-22T03:17:46.470Z,0
2018-02-22T03:18:27.022Z,0
2018-02-22T03:19:07.595Z,0
2018-02-22T03:19:48.173Z,0
2018-02-22T03:20:28.713Z,0
2018-02-22T03:21:09.257Z,0
2018-02-22T03:21:49.816Z,0
2018-02-22T03:22:30.380Z,0
2018-02-22T03:23:10.928Z,0
2018-02-22T03:23:51.488Z,0
2018-02-22T03:24:32.059Z,0
2018-02-22T03:25:12.686Z,0
2018-02-22T03:25:53.222Z,0
2018-02-22T03:26:33.777Z,0
2018-02-22T03:27:14.328Z,0
2018-02-22T03:27:54.894Z,0
2018-02-22T03:28:35.432Z,0
2018-02-22T03:29:15.990Z,0
2018-02-22T03:29:56.531Z,0
2018-02-22T03:30:37.082Z,0
2018-02-22T03:31:17.614Z,0
2018-02-22T03:31:58.182Z,0
2018-02-22T03:32:38.754Z,0
2018-02-22T03:33:19.309Z,0
2018-02-22T03:33:59.858Z,0
2018-02-22T03:34:40.414Z,0
2018-02-22T03:35:20.972Z,0
2018-02-22T03:36:01.536Z,0
2018-02-22T03:36:42.145Z,0
2018-02-22T03:37:22.699Z,0
2018-02-22T03:38:03.257Z,0
2018-02-22T03:38:43.813Z,0
2018-02-22T03:39:24.351Z,0
2018-02-22T03:40:04.900Z,0
2018-02-22T03:40:45.452Z,0
2018-02-22T03:41:26.012Z,0
2018-02-22T03:42:06.695Z,0
2018-02-22T03:42:47.534Z,0
2018-02-22T03:43:28.095Z,0
2018-02-22T03:44:08.720Z,0
2018-02-22T03:44:49.276Z,0
2018-02-22T03:45:30.032Z,0
2018-02-22T03:46:11.067Z,0
2018-02-22T03:46:51.910Z,0
2018-02-22T03:47:32.638Z,0
2018-02-22T03:48:13.397Z,0
2018-02-22T03:48:53.954Z,0
2018-02-22T03:49:34.491Z,0
2018-02-22T03:50:15.041Z,0
2018-02-22T03:50:55.641Z,0
2018-02-22T03:51:36.270Z,0
2018-02-22T03:52:16.817Z,0
2018-02-22T03:52:57.438Z,0
2018-02-22T03:53:38.194Z,0
2018-02-22T03:54:19.090Z,0
2018-02-22T03:55:00.018Z,0
2018-02-22T03:55:40.675Z,0
2018-02-22T03:56:21.793Z,0
2018-02-22T03:57:02.624Z,0
2018-02-22T03:57:43.296Z,0
2018-02-22T03:58:24.250Z,0
2018-02-22T03:59:04.914Z,0
2018-02-22T03:59:45.467Z,0
2018-02-22T04:00:26.378Z,0
2018-02-22T04:01:07.077Z,0
2018-02-22T04:01:47.655Z,0
2018-02-22T04:02:28.207Z,0
2018-02-22T04:03:08.766Z,0
2018-02-22T04:03:49.314Z,0
2018-02-22T04:04:29.866Z,0
2018-02-22T04:05:10.416Z,0
2018-02-22T04:05:50.968Z,0
2018-02-22T04:06:31.525Z,0
2018-02-22T04:07:12.076Z,0
2018-02-22T04:07:52.637Z,0
2018-02-22T04:08:33.177Z,0
2018-02-22T04:09:13.725Z,0
2018-02-22T04:09:54.280Z,0
2018-02-22T04:10:34.834Z,0
2018-02-22T04:11:15.382Z,0
2018-02-22T04:11:55.931Z,0
2018-02-22T04:12:36.479Z,0
2018-02-22T04:13:17.042Z,0
2018-02-22T04:13:57.616Z,0
2018-02-22T04:14:38.164Z,0
2018-02-22T04:15:18.715Z,0
2018-02-22T04:15:59.260Z,0
2018-02-22T04:16:39.814Z,0
2018-02-22T04:17:20.369Z,0
2018-02-22T04:18:00.929Z,0
2018-02-22T04:18:41.491Z,0
2018-02-22T04:19:22.043Z,0
2018-02-22T04:20:02.614Z,0
2018-02-22T04:20:43.176Z,0
2018-02-22T04:21:23.733Z,0
2018-02-22T04:22:04.295Z,0
2018-02-22T04:22:44.847Z,0
2018-02-22T04:23:25.404Z,0
2018-02-22T04:24:05.964Z,0
2018-02-22T04:24:46.542Z,0
2018-02-22T04:25:27.119Z,0
2018-02-22T04:26:07.682Z,0
2018-02-22T04:26:48.247Z,0
2018-02-22T04:27:28.989Z,0
2018-02-22T04:28:09.540Z,0
2018-02-22T04:28:50.109Z,0
2018-02-22T04:29:30.648Z,0
2018-02-22T04:30:11.215Z,0
2018-02-22T04:30:51.753Z,0
2018-02-22T04:31:32.311Z,0
2018-02-22T04:32:12.856Z,0
2018-02-22T04:32:53.416Z,0
2018-02-22T04:33:34.057Z,0
2018-02-22T04:34:14.612Z,0
2018-02-22T04:34:55.170Z,0
2018-02-22T04:35:35.712Z,0
2018-02-22T04:36:16.270Z,0
2018-02-22T04:36:56.827Z,0
2018-02-22T04:37:37.370Z,0
2018-02-22T04:38:17.916Z,0
2018-02-22T04:38:58.464Z,0
2018-02-22T04:39:39.019Z,0
2018-02-22T04:40:19.564Z,0
2018-02-22T04:41:00.125Z,0
2018-02-22T04:41:40.682Z,0
2018-02-22T04:42:21.227Z,0
2018-02-22T04:43:01.803Z,0
2018-02-22T04:43:42.363Z,0
2018-02-22T04:44:22.894Z,0
2018-02-22T04:45:03.449Z,0
2018-02-22T04:45:43.997Z,0
2018-02-22T04:46:24.537Z,0
2018-02-22T04:47:05.084Z,0
2018-02-22T04:47:45.639Z,0
2018-02-22T04:48:26.184Z,0
2018-02-22T04:49:06.735Z,0
2018-02-22T04:49:47.293Z,0
2018-02-22T04:50:27.900Z,0
2018-02-22T04:51:08.401Z,0
2018-02-22T04:51:48.947Z,0
2018-02-22T04:52:29.485Z,0
2018-02-22T04:53:10.041Z,0
2018-02-22T04:53:50.592Z,0
2018-02-22T04:54:31.214Z,0
2018-02-22T04:55:11.734Z,0
2018-02-22T04:55:52.268Z,0
2018-02-22T04:56:32.813Z,0
2018-02-22T04:57:13.353Z,0
2018-02-22T04:57:53.905Z,0
2018-02-22T04:58:34.455Z,0
2018-02-22T04:59:15.019Z,0
2018-02-22T04:59:55.563Z,0
2018-02-22T05:00:36.107Z,0
2018-02-22T05:01:16.657Z,0
2018-02-22T05:01:57.218Z,0
2018-02-22T05:02:37.769Z,0
2018-02-22T05:03:18.327Z,0
2018-02-22T05:03:58.864Z,0
2018-02-22T05:04:39.419Z,0
2018-02-22T05:05:19.973Z,0
2018-02-22T05:06:00.518Z,0
2018-02-22T05:06:41.075Z,0
2018-02-22T05:07:21.618Z,0
2018-02-22T05:08:02.171Z,0
2018-02-22T05:08:42.727Z,0
2018-02-22T05:09:23.281Z,0
2018-02-22T05:10:03.831Z,0
2018-02-22T05:10:44.384Z,0
2018-02-22T05:11:24.932Z,0
2018-02-22T05:12:05.497Z,0
2018-02-22T05:12:46.032Z,0
2018-02-22T05:13:26.575Z,0
2018-02-22T05:14:07.159Z,0
2018-02-22T05:14:47.682Z,0
2018-02-22T05:15:28.240Z,0
2018-02-22T05:16:08.806Z,0
2018-02-22T05:16:49.340Z,0
2018-02-22T05:17:29.889Z,0
2018-02-22T05:18:10.454Z,0
2018-02-22T05:18:51.004Z,0
2018-02-22T05:19:31.564Z,0
2018-02-22T05:20:12.120Z,0
2018-02-22T05:20:52.686Z,0
2018-02-22T05:21:33.229Z,0
2018-02-22T05:22:13.782Z,0
2018-02-22T05:22:54.325Z,0
2018-02-22T05:23:34.874Z,0
2018-02-22T05:24:15.452Z,0
2018-02-22T05:24:56.009Z,0
2018-02-22T05:25:36.559Z,0
2018-02-22T05:26:17.115Z,0
2018-02-22T05:26:57.716Z,0
2018-02-22T05:27:38.269Z,0
2018-02-22T05:28:18.853Z,0
2018-02-22T05:28:59.394Z,0
2018-02-22T05:29:39.995Z,0
2018-02-22T05:30:20.563Z,0
2018-02-22T05:31:01.121Z,0
2018-02-22T05:31:41.702Z,0
2018-02-22T05:32:22.271Z,0
2018-02-22T05:33:02.828Z,0
2018-02-22T05:33:43.387Z,0
2018-02-22T05:34:24.036Z,4
2018-02-22T05:35:04.522Z,4
2018-02-22T05:35:45.125Z,4
2018-02-22T05:36:25.862Z,4
2018-02-22T05:37:06.580Z,0
2018-02-22T05:37:47.132Z,0
2018-02-22T05:38:27.704Z,4
2018-02-22T05:39:08.439Z,4
2018-02-22T05:39:48.815Z,4
2018-02-22T05:40:29.374Z,0
2018-02-22T05:41:09.939Z,4
2018-02-22T05:41:50.468Z,4
2018-02-22T05:42:31.023Z,4
2018-02-22T05:43:11.588Z,8
2018-02-22T05:43:52.127Z,4
2018-02-22T05:44:32.740Z,8
2018-02-22T05:45:13.268Z,8
2018-02-22T05:45:53.838Z,8
2018-02-22T05:46:34.403Z,8
2018-02-22T05:47:14.963Z,12
2018-02-22T05:47:55.512Z,12
2018-02-22T05:48:36.077Z,16
2018-02-22T05:49:16.884Z,20
2018-02-22T05:49:57.433Z,20
2018-02-22T05:50:38.009Z,24
2018-02-22T05:51:18.562Z,24
2018-02-22T05:51:59.122Z,28
2018-02-22T05:52:39.679Z,28
2018-02-22T05:53:20.235Z,32
2018-02-22T05:54:00.788Z,36
2018-02-22T05:54:41.355Z,40
2018-02-22T05:55:21.916Z,44
2018-02-22T05:56:02.470Z,48
2018-02-22T05:56:43.018Z,52
2018-02-22T05:57:23.564Z,56
2018-02-22T05:58:04.111Z,64
2018-02-22T05:58:44.673Z,68
2018-02-22T05:59:25.245Z,76
2018-02-22T06:00:05.806Z,84
2018-02-22T06:00:46.396Z,88
2018-02-22T06:01:26.949Z,96
2018-02-22T06:02:07.500Z,104
2018-02-22T06:02:48.090Z,112
2018-02-22T06:03:28.611Z,120
2018-02-22T06:04:09.168Z,132
2018-02-22T06:04:49.718Z,136
2018-02-22T06:05:30.306Z,148
2018-02-22T06:06:10.835Z,160
2018-02-22T06:06:51.373Z,168
2018-02-22T06:07:31.915Z,184
2018-02-22T06:08:12.492Z,192
2018-02-22T06:08:53.046Z,204
2018-02-22T06:09:33.636Z,216
2018-02-22T06:10:14.202Z,228
2018-02-22T06:10:54.761Z,240
2018-02-22T06:11:35.311Z,256
2018-02-22T06:12:15.863Z,272
2018-02-22T06:12:56.406Z,284
2018-02-22T06:13:36.958Z,300
2018-02-22T06:14:17.509Z,320
2018-02-22T06:14:58.075Z,336
2018-02-22T06:15:38.630Z,352
2018-02-22T06:16:19.189Z,368
2018-02-22T06:16:59.750Z,388
2018-02-22T06:17:40.300Z,408
2018-02-22T06:18:20.858Z,428
2018-02-22T06:19:01.402Z,448
2018-02-22T06:19:41.940Z,468
2018-02-22T06:20:22.484Z,492
2018-02-22T06:21:03.039Z,512
2018-02-22T06:21:43.617Z,532
2018-02-22T06:22:24.199Z,556
2018-02-22T06:23:04.735Z,580
2018-02-22T06:23:45.358Z,608
2018-02-22T06:24:25.924Z,632
2018-02-22T06:25:06.495Z,660
2018-02-22T06:25:47.046Z,688
2018-02-22T06:26:27.607Z,712
2018-02-22T06:27:08.157Z,740
2018-02-22T06:27:48.711Z,768
2018-02-22T06:28:29.282Z,792
2018-02-22T06:29:09.846Z,824
2018-02-22T06:29:50.409Z,852
2018-02-22T06:30:30.956Z,880
2018-02-22T06:31:11.510Z,912
2018-02-22T06:31:52.074Z,944
2018-02-22T06:32:32.622Z,976
2018-02-22T06:33:13.177Z,1004
2018-02-22T06:33:53.777Z,1032
2018-02-22T06:34:34.304Z,1060
2018-02-22T06:35:14.851Z,1088
2018-02-22T06:35:55.445Z,1116
2018-02-22T06:36:36.007Z,1148
2018-02-22T06:37:16.568Z,1180
2018-02-22T06:37:57.103Z,1212
2018-02-22T06:38:37.672Z,1244
2018-02-22T06:39:18.227Z,1276
2018-02-22T06:39:58.782Z,1316
2018-02-22T06:40:39.423Z,1348
2018-02-22T06:41:19.989Z,1384
2018-02-22T06:42:00.532Z,1416
2018-02-22T06:42:41.090Z,1456
2018-02-22T06:43:21.647Z,1492
2018-02-22T06:44:02.182Z,1524
2018-02-22T06:44:42.735Z,1556
2018-02-22T06:45:23.297Z,1588
2018-02-22T06:46:03.854Z,1620
2018-02-22T06:46:44.407Z,1644
2018-02-22T06:47:24.956Z,1668
2018-02-22T06:48:05.506Z,1696
2018-02-22T06:48:46.058Z,1720
2018-02-22T06:49:26.654Z,1752
2018-02-22T06:50:07.203Z,1772
2018-02-22T06:50:47.786Z,1800
2018-02-22T06:51:28.343Z,1824
2018-02-22T06:52:08.983Z,1856
2018-02-22T06:52:49.979Z,1892
2018-02-22T06:53:31.077Z,1912
2018-02-22T06:54:12.141Z,1936
2018-02-22T06:54:52.706Z,1960
2018-02-22T06:55:34.330Z,1984
2018-02-22T06:56:14.989Z,2012
2018-02-22T06:56:55.550Z,2064
2018-02-22T06:57:36.121Z,2096
2018-02-22T06:58:16.695Z,2108
2018-02-22T06:58:57.599Z,2136
2018-02-22T06:59:38.731Z,2160
2018-02-22T07:00:19.672Z,2180
2018-02-22T07:01:00.613Z,2216
2018-02-22T07:01:41.526Z,2248
2018-02-22T07:02:22.505Z,2296
2018-02-22T07:03:03.729Z,2340
2018-02-22T07:03:44.483Z,2408
2018-02-22T07:04:25.059Z,2452
2018-02-22T07:05:05.611Z,2492
2018-02-22T07:05:46.828Z,2528
2018-02-22T07:06:27.721Z,2552
2018-02-22T07:07:08.846Z,2584
2018-02-22T07:07:49.692Z,2588
2018-02-22T07:08:30.341Z,2628
2018-02-22T07:09:11.191Z,2676
2018-02-22T07:09:51.885Z,2720
2018-02-22T07:10:34.038Z,2764
2018-02-22T07:11:16.664Z,2796
2018-02-22T07:11:57.238Z,2852
2018-02-22T07:12:37.780Z,2900
2018-02-22T07:13:18.332Z,2948
2018-02-22T07:13:59.047Z,2964
2018-02-22T07:14:40.039Z,2960
2018-02-22T07:15:21.028Z,3012
2018-02-22T07:16:01.702Z,3008
2018-02-22T07:16:42.270Z,3020
2018-02-22T07:17:22.816Z,3056
2018-02-22T07:18:03.373Z,3104
2018-02-22T07:18:43.924Z,3152
2018-02-22T07:19:24.483Z,3196
2018-02-22T07:20:05.038Z,3252
2018-02-22T07:20:45.617Z,3312
2018-02-22T07:21:26.198Z,3344
2018-02-22T07:22:06.762Z,3368
2018-02-22T07:22:47.349Z,3404
2018-02-22T07:23:27.958Z,3440
2018-02-22T07:24:08.500Z,3468
2018-02-22T07:24:49.051Z,3512
2018-02-22T07:25:29.599Z,3556
2018-02-22T07:26:10.409Z,3568
2018-02-22T07:26:51.162Z,3584
2018-02-22T07:27:31.697Z,3620
2018-02-22T07:28:12.212Z,3644
2018-02-22T07:28:52.782Z,3680
2018-02-22T07:29:33.369Z,3684
2018-02-22T07:30:13.954Z,3696
2018-02-22T07:30:54.676Z,3704
2018-02-22T07:31:35.214Z,3724
2018-02-22T07:32:15.869Z,3752
2018-02-22T07:32:56.495Z,3788
2018-02-22T07:33:37.038Z,3796
2018-02-22T07:34:17.632Z,3816
2018-02-22T07:34:58.199Z,3860
2018-02-22T07:35:38.791Z,3892
2018-02-22T07:36:19.375Z,3920
2018-02-22T07:36:59.926Z,3940
2018-02-22T07:37:40.494Z,3948
2018-02-22T07:38:21.049Z,3956
2018-02-22T07:39:01.601Z,3952
2018-02-22T07:39:42.154Z,3996
2018-02-22T07:40:22.706Z,4052
2018-02-22T07:41:03.573Z,4096
2018-02-22T07:41:44.124Z,4116
2018-02-22T07:42:24.835Z,4108
2018-02-22T07:43:05.400Z,4224
2018-02-22T07:43:46.078Z,4320
2018-02-22T07:44:26.600Z,4268
2018-02-22T07:45:07.158Z,4348
2018-02-22T07:45:47.703Z,4360
2018-02-22T07:46:28.255Z,4400
2018-02-22T07:47:08.861Z,4344
2018-02-22T07:47:49.460Z,4384
2018-02-22T07:48:30.015Z,4420
2018-02-22T07:49:11.111Z,4456
2018-02-22T07:49:51.682Z,4476
2018-02-22T07:50:32.255Z,4688
2018-02-22T07:51:13.015Z,4648
2018-02-22T07:51:53.694Z,4676
2018-02-22T07:52:34.631Z,4616
2018-02-22T07:53:15.195Z,4816
2018-02-22T07:53:56.151Z,4620
2018-02-22T07:54:36.921Z,4780
2018-02-22T07:55:18.015Z,4644
2018-02-22T07:55:59.117Z,4664
2018-02-22T07:56:40.839Z,4680
2018-02-22T07:57:21.991Z,4740
2018-02-22T07:58:02.782Z,4784
2018-02-22T07:58:43.664Z,5040
2018-02-22T07:59:24.315Z,5056
2018-02-22T08:00:05.104Z,5048
2018-02-22T08:00:45.902Z,4984
2018-02-22T08:01:26.643Z,5124
2018-02-22T08:02:07.348Z,5016
2018-02-22T08:02:48.245Z,5120
2018-02-22T08:03:29.135Z,5068
2018-02-22T08:04:10.000Z,5120
2018-02-22T08:04:50.906Z,5184
2018-02-22T08:05:33.881Z,5164
2018-02-22T08:06:14.436Z,5204
2018-02-22T08:06:55.196Z,5568
2018-02-22T08:07:35.762Z,5636
2018-02-22T08:08:16.651Z,5632
2018-02-22T08:08:57.216Z,5720
2018-02-22T08:09:37.768Z,5484
2018-02-22T08:10:18.769Z,5456
2018-02-22T08:10:59.819Z,5552
2018-02-22T08:11:40.446Z,6164
2018-02-22T08:12:21.007Z,11684
2018-02-22T08:13:01.578Z,22656
2018-02-22T08:13:42.202Z,36992
2018-02-22T08:14:22.836Z,51936
2018-02-22T08:15:03.511Z,63552
2018-02-22T08:15:44.061Z,65632
2018-02-22T08:16:24.742Z,66144
2018-02-22T08:17:05.410Z,64704
2018-02-22T08:17:46.213Z,63616
2018-02-22T08:18:26.887Z,63712
2018-02-22T08:19:07.677Z,63552
2018-02-22T08:19:48.224Z,65344
2018-02-22T08:20:28.959Z,65280
2018-02-22T08:21:09.769Z,64992
2018-02-22T08:21:50.508Z,64704
2018-02-22T08:22:31.249Z,64896
2018-02-22T08:23:11.941Z,65024
2018-02-22T08:23:52.671Z,64864
2018-02-22T08:24:33.234Z,67168
2018-02-22T08:25:13.798Z,68064
2018-02-22T08:25:54.374Z,69792
2018-02-22T08:26:34.933Z,71328
2018-02-22T08:27:15.657Z,70784
2018-02-22T08:27:56.387Z,70656
2018-02-22T08:28:36.911Z,70688
2018-02-22T08:29:17.491Z,69376
2018-02-22T08:29:58.037Z,66976
2018-02-22T08:30:38.605Z,67488
2018-02-22T08:31:19.246Z,66656
2018-02-22T08:31:59.815Z,66848
2018-02-22T08:32:41.288Z,67968
2018-02-22T08:33:22.679Z,68288
2018-02-22T08:34:03.779Z,66304
2018-02-22T08:34:44.705Z,63680
2018-02-22T08:35:25.992Z,66080
2018-02-22T08:36:06.680Z,66688
2018-02-22T08:36:47.484Z,65824
2018-02-22T08:37:28.481Z,62432
2018-02-22T08:38:09.570Z,64384
2018-02-22T08:38:51.880Z,64640
2018-02-22T08:39:32.224Z,62272
2018-02-22T08:40:13.052Z,63552
2018-02-22T08:40:53.780Z,61536
2018-02-22T08:41:34.998Z,60000
2018-02-22T08:42:15.997Z,59648
2018-02-22T08:42:56.811Z,59584
2018-02-22T08:43:38.453Z,59968
2018-02-22T08:44:19.525Z,61920
2018-02-22T08:45:02.145Z,60032
2018-02-22T08:45:43.155Z,59744
2018-02-22T08:46:24.319Z,60032
2018-02-22T08:47:05.693Z,58656
2018-02-22T08:47:47.648Z,56640
2018-02-22T08:48:28.743Z,55584
2018-02-22T08:49:09.679Z,55392
2018-02-22T08:49:51.068Z,54624
2018-02-22T08:50:32.122Z,54016
2018-02-22T08:51:12.586Z,51296
2018-02-22T08:51:53.321Z,51904
2018-02-22T08:52:34.052Z,53952
2018-02-22T08:53:14.762Z,55040
2018-02-22T08:53:56.279Z,56832
2018-02-22T08:54:37.738Z,53152
2018-02-22T08:55:19.076Z,46208
2018-02-22T08:55:59.833Z,41056
2018-02-22T08:56:40.406Z,40512
2018-02-22T08:57:20.999Z,41312
2018-02-22T08:58:01.551Z,41024
2018-02-22T08:58:42.128Z,40416
2018-02-22T08:59:22.710Z,41312
2018-02-22T09:00:03.278Z,42176
2018-02-22T09:00:43.877Z,40640
2018-02-22T09:01:24.469Z,39584
2018-02-22T09:02:05.038Z,38688
2018-02-22T09:02:45.589Z,37504
2018-02-22T09:03:26.176Z,36416
2018-02-22T09:04:06.755Z,35360
2018-02-22T09:04:47.323Z,32608
2018-02-22T09:05:27.879Z,27776
2018-02-22T09:06:08.437Z,23808
2018-02-22T09:06:49.031Z,20832
2018-02-22T09:07:29.654Z,19136
2018-02-22T09:08:10.370Z,18112
2018-02-22T09:08:50.964Z,17376
2018-02-22T09:09:31.519Z,16576
2018-02-22T09:10:12.089Z,15904
2018-02-22T09:10:52.664Z,15328
2018-02-22T09:11:33.242Z,14544
2018-02-22T09:12:13.818Z,13780
2018-02-22T09:12:54.393Z,13196
2018-02-22T09:13:34.982Z,12636
2018-02-22T09:14:15.541Z,12228
2018-02-22T09:14:56.217Z,11824
2018-02-22T09:15:36.777Z,11492
2018-02-22T09:16:17.411Z,11004
2018-02-22T09:16:58.060Z,10648
2018-02-22T09:17:38.643Z,10304
2018-02-22T09:18:19.459Z,9940
2018-02-22T09:19:00.021Z,9872
2018-02-22T09:19:40.574Z,9488
2018-02-22T09:20:21.138Z,9104
2018-02-22T09:21:01.692Z,8872
2018-02-22T09:21:42.270Z,8640
2018-02-22T09:22:22.903Z,8452
2018-02-22T09:23:03.527Z,8296
2018-02-22T09:23:44.149Z,8048
2018-02-22T09:24:24.688Z,7808
2018-02-22T09:25:05.257Z,7588
2018-02-22T09:25:45.872Z,7412
2018-02-22T09:26:26.415Z,7420
2018-02-22T09:27:06.964Z,7304
2018-02-22T09:27:47.550Z,7152
2018-02-22T09:28:28.124Z,7008
2018-02-22T09:29:08.699Z,6756
2018-02-22T09:29:49.264Z,6544
2018-02-22T09:30:29.846Z,6460
2018-02-22T09:31:10.541Z,6360
2018-02-22T09:31:51.094Z,6328
2018-02-22T09:32:31.679Z,6288
2018-02-22T09:33:12.416Z,6212
2018-02-22T09:33:52.938Z,6180
2018-02-22T09:34:33.514Z,6172
2018-02-22T09:35:14.089Z,6072